Other Surface Observations
Issued by NWS Missoula, MT

Home | Current Version | Previous Version | Text Only | Print | Product List | Glossary On
Versions: 1 2 3 4 5 6 7 8 9 10 11 12 13 14 15 16 17 18 19 20 21 22 23 24 25 26 27 28 29 30 31 32 33 34 35 36 37 38 39 40 41 42 43 44 45 46 47 48 49 50
000
SXUS55 KMSO 181704
OSOMSO
MONTANA AWOS SUMMARY
NATIONAL WEATHER SERVICE MISSOULA MT
1003 AM MST FRI APR 18 2014

Montana AWOS Reports

EKALAKA     |K97M 181655Z AUTO 11018G24KT 40SM 14/01 A2970 RMK AO1 T01440006
PLAINS      |KS34 181655Z AUTO 25014G25KT 25SM 08/M02 A2987 RMK AO1 T00781021
LAUREL      |K6S8 181655Z AUTO 29013G19KT 40SM 14/03 A2972 RMK AO1 T01390028
ROUNDUP     |KRPX 181655Z AUTO 00000KT 10SM 11/03 A2964 RMK AO1 T01060033
MALTA       |KM75 181655Z AUTO 00000KT 40SM 08/02 A2963 RMK AO1 T00830022
TWIN BRIDGES|K7S1 181655Z AUTO 17010KT 40SM 09/02 A2979 RMK AO1 T00940022




USA.gov is the U.S. government's official web portal to all federal, state and local government web resources and services.